createdAt,value
2017-09-15T00:00:32.347Z,49.53
2017-09-15T00:02:34.802Z,49.53
2017-09-15T00:04:37.388Z,49.56
2017-09-15T00:06:40.016Z,49.54
2017-09-15T00:08:42.486Z,49.48
2017-09-15T00:10:44.942Z,49.51
2017-09-15T00:12:47.380Z,49.50
2017-09-15T00:14:49.868Z,49.48
2017-09-15T00:16:52.365Z,49.51
2017-09-15T00:18:54.884Z,49.53
2017-09-15T00:20:57.666Z,49.48
2017-09-15T00:23:00.115Z,49.53
2017-09-15T00:25:02.636Z,49.50
2017-09-15T00:27:05.217Z,49.46
2017-09-15T00:29:07.693Z,49.55
2017-09-15T00:31:10.145Z,49.55
2017-09-15T00:33:12.689Z,49.58
2017-09-15T00:35:15.165Z,49.54
2017-09-15T00:37:18.550Z,49.55
2017-09-15T00:39:21.014Z,49.56
2017-09-15T00:41:23.474Z,49.58
2017-09-15T00:43:25.958Z,49.56
2017-09-15T00:45:28.634Z,49.57
2017-09-15T00:47:31.208Z,49.57
2017-09-15T00:49:33.672Z,49.57
2017-09-15T00:51:36.232Z,49.57
2017-09-15T00:53:38.676Z,49.54
2017-09-15T00:55:41.295Z,49.54
2017-09-15T00:57:43.777Z,49.54
2017-09-15T00:59:46.229Z,49.54
2017-09-15T01:01:48.714Z,49.57
2017-09-15T01:03:51.273Z,49.61
2017-09-15T01:05:53.747Z,49.61
2017-09-15T01:07:56.191Z,49.59
2017-09-15T01:09:58.807Z,49.56
2017-09-15T01:12:01.311Z,49.56
2017-09-15T01:14:03.813Z,49.59
2017-09-15T01:16:06.355Z,49.61
2017-09-15T01:18:08.860Z,49.61
2017-09-15T01:20:11.320Z,49.63
2017-09-15T01:22:13.916Z,49.61
2017-09-15T01:24:16.424Z,49.57
2017-09-15T01:26:18.901Z,49.60
2017-09-15T01:28:21.369Z,49.63
2017-09-15T01:30:23.882Z,49.59
2017-09-15T01:32:26.409Z,49.61
2017-09-15T01:34:28.880Z,49.58
2017-09-15T01:36:31.334Z,49.62
2017-09-15T01:38:33.836Z,49.62
2017-09-15T01:40:36.301Z,49.61
2017-09-15T01:42:38.788Z,49.57
2017-09-15T01:44:41.310Z,49.57
2017-09-15T01:46:43.792Z,49.57
2017-09-15T01:48:46.289Z,49.60
2017-09-15T01:50:48.961Z,49.61
2017-09-15T01:52:51.443Z,49.57
2017-09-15T01:54:53.886Z,49.62
2017-09-15T01:56:56.417Z,49.63
2017-09-15T01:58:58.952Z,49.63
2017-09-15T02:01:01.396Z,49.62
2017-09-15T02:03:03.865Z,49.64
2017-09-15T02:05:06.342Z,49.62
2017-09-15T02:07:08.784Z,49.60
2017-09-15T02:09:11.226Z,49.61
2017-09-15T02:11:13.706Z,49.65
2017-09-15T02:13:16.158Z,49.66
2017-09-15T02:15:18.700Z,49.65
2017-09-15T02:17:21.262Z,49.61
2017-09-15T02:19:23.739Z,49.61
2017-09-15T02:21:26.238Z,49.66
2017-09-15T02:23:28.874Z,49.69
2017-09-15T02:25:31.310Z,49.65
2017-09-15T02:27:33.796Z,49.67
2017-09-15T02:29:36.266Z,49.66
2017-09-15T02:31:38.732Z,49.66
2017-09-15T02:33:41.191Z,49.68
2017-09-15T02:35:43.753Z,49.66
2017-09-15T02:37:46.233Z,49.67
2017-09-15T02:39:48.685Z,49.69
2017-09-15T02:41:51.278Z,49.68
2017-09-15T02:43:53.858Z,49.68
2017-09-15T02:45:56.331Z,49.69
2017-09-15T02:47:58.829Z,49.70
2017-09-15T02:50:01.308Z,49.71
2017-09-15T02:52:03.785Z,49.69
2017-09-15T02:54:06.267Z,49.70
2017-09-15T02:56:08.818Z,49.70
2017-09-15T02:58:11.457Z,49.72
2017-09-15T03:00:14.123Z,49.70
2017-09-15T03:02:16.663Z,49.69
2017-09-15T03:04:19.216Z,49.68
2017-09-15T03:06:21.695Z,49.71
2017-09-15T03:08:24.140Z,49.70
2017-09-15T03:10:26.587Z,49.70
2017-09-15T03:12:29.052Z,49.70
2017-09-15T03:14:31.586Z,49.69
2017-09-15T03:16:34.164Z,49.70
2017-09-15T03:18:36.687Z,49.72
2017-09-15T03:20:39.264Z,49.69
2017-09-15T03:22:41.714Z,49.69
2017-09-15T03:24:44.465Z,49.65
2017-09-15T03:26:46.904Z,49.67
2017-09-15T03:28:49.485Z,49.70
2017-09-15T03:30:52.034Z,49.68
2017-09-15T03:32:54.491Z,49.71
2017-09-15T03:34:56.966Z,49.67
2017-09-15T03:36:59.495Z,49.67
2017-09-15T03:39:01.970Z,49.67
2017-09-15T03:41:04.549Z,49.68
2017-09-15T03:43:07.013Z,49.70
2017-09-15T03:45:09.465Z,49.68
2017-09-15T03:47:12.005Z,49.69
2017-09-15T03:49:14.467Z,49.67
2017-09-15T03:51:16.902Z,49.69
2017-09-15T03:53:19.473Z,49.71
2017-09-15T03:55:22.059Z,49.69
2017-09-15T03:57:24.517Z,49.71
2017-09-15T03:59:26.990Z,49.75
2017-09-15T04:01:29.484Z,49.74
2017-09-15T04:03:31.978Z,49.77
2017-09-15T04:05:34.413Z,49.71
2017-09-15T04:07:36.981Z,49.69
2017-09-15T04:09:39.457Z,49.69
2017-09-15T04:11:41.936Z,49.67
2017-09-15T04:13:44.396Z,49.68
2017-09-15T04:15:46.881Z,49.65
2017-09-15T04:17:49.345Z,49.66
2017-09-15T04:19:51.833Z,49.70
2017-09-15T04:21:54.324Z,49.71
2017-09-15T04:23:56.769Z,49.74
2017-09-15T04:25:59.357Z,49.73
2017-09-15T04:28:01.977Z,49.73
2017-09-15T04:30:04.465Z,49.76
2017-09-15T04:32:07.028Z,49.71
2017-09-15T04:34:09.456Z,49.67
2017-09-15T04:36:12.166Z,49.74
2017-09-15T04:38:14.650Z,49.74
2017-09-15T04:40:17.116Z,49.69
2017-09-15T04:42:19.552Z,49.70
2017-09-15T04:44:22.045Z,49.74
2017-09-15T04:46:24.573Z,49.75
2017-09-15T04:48:27.021Z,49.75
2017-09-15T04:50:29.515Z,49.71
2017-09-15T04:52:32.112Z,49.70
2017-09-15T04:54:34.604Z,49.73
2017-09-15T04:56:37.080Z,49.68
2017-09-15T04:58:39.542Z,49.68
2017-09-15T05:00:42.049Z,49.70
2017-09-15T05:02:44.522Z,49.67
2017-09-15T05:04:46.968Z,49.66
2017-09-15T05:06:49.510Z,49.70
2017-09-15T05:08:51.978Z,49.67
2017-09-15T05:10:54.428Z,49.63
2017-09-15T05:12:56.934Z,49.67
2017-09-15T05:14:59.389Z,49.66
2017-09-15T05:17:01.845Z,49.66
2017-09-15T05:19:04.466Z,49.66
2017-09-15T05:21:06.977Z,49.65
2017-09-15T05:23:09.460Z,49.63
2017-09-15T05:25:11.916Z,49.57
2017-09-15T05:27:14.471Z,49.65
2017-09-15T05:29:16.912Z,49.65
2017-09-15T05:31:19.379Z,49.66
2017-09-15T05:33:21.869Z,49.70
2017-09-15T05:35:24.322Z,49.69
2017-09-15T05:37:26.780Z,49.67
2017-09-15T05:39:29.256Z,49.64
2017-09-15T05:41:31.739Z,49.61
2017-09-15T05:43:34.241Z,49.60
2017-09-15T05:45:36.728Z,49.61
2017-09-15T05:47:39.206Z,49.62
2017-09-15T05:49:41.707Z,49.60
2017-09-15T05:51:44.191Z,49.63
2017-09-15T05:53:46.756Z,49.63
2017-09-15T05:55:49.208Z,49.63
2017-09-15T05:57:51.693Z,49.58
2017-09-15T05:59:54.140Z,49.54
2017-09-15T06:01:56.631Z,49.56
2017-09-15T06:03:59.121Z,49.54
2017-09-15T06:06:01.581Z,49.51
2017-09-15T06:08:04.027Z,49.48
2017-09-15T06:10:06.798Z,49.52
2017-09-15T06:12:09.278Z,49.53
2017-09-15T06:14:11.724Z,49.54
2017-09-15T06:16:14.201Z,49.58
2017-09-15T06:18:16.698Z,49.58
2017-09-15T06:20:19.165Z,49.61
2017-09-15T06:22:21.732Z,49.62
2017-09-15T06:24:24.257Z,49.59
2017-09-15T06:26:26.775Z,49.54
2017-09-15T06:28:29.652Z,49.54
2017-09-15T06:30:32.125Z,49.53
2017-09-15T06:32:34.576Z,49.58
2017-09-15T06:34:37.159Z,49.57
2017-09-15T06:36:39.742Z,49.58
2017-09-15T06:38:42.237Z,49.54
2017-09-15T06:40:44.793Z,49.51
2017-09-15T06:42:47.261Z,49.58
2017-09-15T06:44:49.760Z,53.54
2017-09-15T06:46:52.215Z,54.65
2017-09-15T06:48:54.676Z,55.11
2017-09-15T06:50:57.160Z,55.30
2017-09-15T06:52:59.704Z,57.90
2017-09-15T06:55:02.192Z,58.24
2017-09-15T06:57:04.653Z,59.08
2017-09-15T06:59:07.138Z,57.55
2017-09-15T07:01:09.610Z,58.34
2017-09-15T07:03:12.169Z,60.27
2017-09-15T07:05:14.646Z,58.81
2017-09-15T07:07:17.106Z,59.03
2017-09-15T07:09:19.680Z,59.21
2017-09-15T07:11:23.177Z,58.07
2017-09-15T07:13:25.619Z,58.82
2017-09-15T07:15:28.085Z,60.03
2017-09-15T07:17:30.913Z,63.39
2017-09-15T07:19:33.401Z,62.83
2017-09-15T07:21:35.840Z,59.35
2017-09-15T07:23:38.388Z,59.49
2017-09-15T07:25:41.015Z,63.56
2017-09-15T07:27:43.462Z,64.50
2017-09-15T07:29:46.134Z,63.51
2017-09-15T07:31:48.638Z,62.14
2017-09-15T07:33:51.194Z,63.35
2017-09-15T07:35:53.687Z,61.86
2017-09-15T07:37:56.132Z,60.95
2017-09-15T07:39:58.586Z,59.99
2017-09-15T07:42:01.227Z,61.14
2017-09-15T07:44:03.824Z,62.35
2017-09-15T07:46:06.320Z,59.61
2017-09-15T07:48:08.864Z,58.89
2017-09-15T07:50:11.372Z,59.23
2017-09-15T07:52:13.849Z,58.84
2017-09-15T07:54:16.316Z,60.67
2017-09-15T07:56:18.756Z,62.83
2017-09-15T07:58:21.231Z,64.00
2017-09-15T08:00:23.789Z,61.14
2017-09-15T08:02:26.258Z,64.51
2017-09-15T08:04:28.735Z,65.23
2017-09-15T08:06:31.207Z,61.03
2017-09-15T08:08:33.688Z,61.17
2017-09-15T08:10:36.183Z,61.60
2017-09-15T08:12:38.725Z,61.60
2017-09-15T08:14:41.305Z,61.90
2017-09-15T08:16:43.777Z,61.69
2017-09-15T08:18:46.401Z,62.79
2017-09-15T08:20:48.968Z,62.57
2017-09-15T08:22:51.458Z,62.60
2017-09-15T08:24:54.096Z,62.10
2017-09-15T08:26:56.645Z,63.16
2017-09-15T08:28:59.148Z,60.85
2017-09-15T08:31:01.699Z,64.98
2017-09-15T08:33:04.291Z,60.76
2017-09-15T08:35:06.754Z,57.44
2017-09-15T08:37:09.313Z,55.48
2017-09-15T08:39:11.761Z,54.26
2017-09-15T08:41:14.207Z,53.44
2017-09-15T08:43:16.670Z,52.87
2017-09-15T08:45:19.159Z,52.46
2017-09-15T08:47:21.622Z,52.06
2017-09-15T08:49:24.092Z,51.87
2017-09-15T08:51:26.568Z,51.69
2017-09-15T08:53:29.001Z,51.37
2017-09-15T08:55:31.473Z,51.21
2017-09-15T08:57:33.939Z,51.08
2017-09-15T08:59:36.448Z,50.99
2017-09-15T09:01:38.964Z,50.92
2017-09-15T09:03:41.497Z,50.78
2017-09-15T09:05:43.984Z,50.79
2017-09-15T09:07:46.479Z,50.71
2017-09-15T09:09:49.005Z,50.62
2017-09-15T09:11:51.442Z,50.52
2017-09-15T09:13:54.028Z,50.43
2017-09-15T09:15:56.465Z,50.37
2017-09-15T09:17:58.948Z,50.37
2017-09-15T09:20:01.509Z,50.34
2017-09-15T09:22:04.004Z,50.30
2017-09-15T09:24:06.589Z,50.35
2017-09-15T09:26:09.074Z,50.31
2017-09-15T09:28:11.551Z,50.18
2017-09-15T09:30:14.060Z,50.03
2017-09-15T09:32:16.687Z,49.91
2017-09-15T09:34:19.262Z,49.75
2017-09-15T09:36:21.789Z,49.64
2017-09-15T09:38:24.418Z,49.57
2017-09-15T09:40:26.861Z,49.55
2017-09-15T09:42:29.291Z,49.48
2017-09-15T09:44:31.996Z,49.54
2017-09-15T09:46:34.423Z,49.50
2017-09-15T09:48:36.912Z,49.41
2017-09-15T09:50:39.406Z,49.39
2017-09-15T09:52:41.872Z,49.32
2017-09-15T09:54:44.325Z,49.33
2017-09-15T09:56:47.017Z,49.46
2017-09-15T09:58:49.689Z,49.53
2017-09-15T10:00:52.184Z,49.53
2017-09-15T10:02:54.750Z,49.57
2017-09-15T10:04:57.273Z,49.58
2017-09-15T10:06:59.733Z,49.60
2017-09-15T10:09:02.216Z,49.60
2017-09-15T10:11:04.656Z,49.42
2017-09-15T10:13:07.102Z,49.35
2017-09-15T10:15:09.718Z,49.35
2017-09-15T10:17:12.196Z,49.44
2017-09-15T10:19:14.641Z,49.51
2017-09-15T10:21:17.200Z,49.53
2017-09-15T10:23:19.736Z,49.60
2017-09-15T10:25:22.347Z,49.60
2017-09-15T10:27:24.814Z,49.62
2017-09-15T10:29:27.316Z,49.67
2017-09-15T10:31:29.753Z,49.52
2017-09-15T10:33:32.435Z,49.38
2017-09-15T10:35:34.903Z,49.40
2017-09-15T10:37:37.378Z,49.31
2017-09-15T10:39:39.872Z,49.15
2017-09-15T10:41:42.400Z,49.16
2017-09-15T10:43:44.889Z,49.12
2017-09-15T10:45:47.389Z,49.16
2017-09-15T10:47:49.821Z,49.23
2017-09-15T10:49:52.259Z,49.04
2017-09-15T10:51:54.721Z,48.92
2017-09-15T10:53:57.248Z,48.78
2017-09-15T10:55:59.808Z,48.74
2017-09-15T10:58:08.153Z,48.80
2017-09-15T11:00:13.481Z,48.93
2017-09-15T11:02:16.190Z,49.05
2017-09-15T11:04:18.738Z,49.17
2017-09-15T11:06:21.195Z,49.18
2017-09-15T11:08:23.689Z,49.32
2017-09-15T11:10:26.225Z,49.31
2017-09-15T11:12:28.671Z,49.31
2017-09-15T11:14:31.108Z,49.34
2017-09-15T11:16:33.583Z,49.33
2017-09-15T11:18:36.020Z,49.40
2017-09-15T11:20:38.578Z,49.27
2017-09-15T11:22:41.064Z,49.25
2017-09-15T11:24:43.588Z,49.50
2017-09-15T11:26:46.020Z,49.51
2017-09-15T11:28:48.556Z,49.50
2017-09-15T11:30:51.077Z,49.76
2017-09-15T11:32:53.629Z,49.56
2017-09-15T11:34:56.474Z,49.57
2017-09-15T11:36:58.984Z,49.51
2017-09-15T11:39:01.523Z,49.67
2017-09-15T11:41:04.022Z,49.36
2017-09-15T11:43:06.543Z,49.25
2017-09-15T11:45:09.192Z,49.22
2017-09-15T11:47:11.706Z,49.25
2017-09-15T11:49:14.281Z,49.29
2017-09-15T11:51:16.768Z,49.19
2017-09-15T11:53:19.262Z,49.06
2017-09-15T11:55:21.767Z,48.94
2017-09-15T11:57:24.309Z,48.88
2017-09-15T11:59:27.752Z,48.89
2017-09-15T12:01:30.307Z,48.87
2017-09-15T12:03:32.895Z,49.06
2017-09-15T12:05:35.468Z,48.86
2017-09-15T12:07:37.937Z,48.65
2017-09-15T12:09:40.407Z,48.65
2017-09-15T12:11:43.085Z,48.09
2017-09-15T12:13:45.543Z,49.65
2017-09-15T12:15:48.072Z,49.13
2017-09-15T12:17:50.532Z,51.39
2017-09-15T12:19:52.973Z,50.02
2017-09-15T12:21:55.489Z,50.04
2017-09-15T12:23:58.082Z,50.11
2017-09-15T12:26:00.578Z,53.08
2017-09-15T12:28:03.154Z,52.69
2017-09-15T12:30:05.640Z,52.37
2017-09-15T12:32:08.173Z,51.15
2017-09-15T12:34:10.604Z,48.85
2017-09-15T12:36:13.195Z,50.86
2017-09-15T12:38:15.661Z,51.48
2017-09-15T12:40:18.165Z,49.83
2017-09-15T12:42:20.632Z,49.59
2017-09-15T12:44:23.132Z,48.90
2017-09-15T12:46:25.570Z,48.83
2017-09-15T12:48:28.081Z,48.55
2017-09-15T12:50:30.518Z,48.26
2017-09-15T12:52:32.964Z,48.00
2017-09-15T12:54:35.452Z,48.12
2017-09-15T12:56:37.914Z,47.97
2017-09-15T12:58:40.380Z,47.85
2017-09-15T13:00:42.989Z,47.71
2017-09-15T13:02:45.555Z,47.59
2017-09-15T13:04:47.988Z,47.40
2017-09-15T13:06:50.497Z,47.37
2017-09-15T13:08:52.957Z,47.38
2017-09-15T13:10:55.396Z,47.34
2017-09-15T13:12:57.942Z,47.04
2017-09-15T13:15:00.478Z,47.49
2017-09-15T13:17:02.949Z,47.49
2017-09-15T13:19:05.448Z,47.44
2017-09-15T13:21:07.884Z,47.32
2017-09-15T13:23:10.334Z,47.34
2017-09-15T13:25:12.838Z,47.40
2017-09-15T13:27:15.364Z,47.15
2017-09-15T13:29:17.975Z,47.27
2017-09-15T13:31:20.442Z,47.17
2017-09-15T13:33:22.884Z,47.05
2017-09-15T13:35:25.356Z,47.07
2017-09-15T13:37:27.957Z,47.13
2017-09-15T13:39:30.448Z,47.17
2017-09-15T13:41:32.894Z,47.13
2017-09-15T13:43:35.365Z,47.16
2017-09-15T13:45:37.940Z,47.16
2017-09-15T13:47:40.468Z,47.12
2017-09-15T13:49:43.032Z,47.15
2017-09-15T13:51:45.485Z,47.11
2017-09-15T13:53:47.967Z,47.08
2017-09-15T13:55:50.426Z,47.06
2017-09-15T13:57:52.868Z,47.09
2017-09-15T13:59:55.379Z,47.15
2017-09-15T14:01:57.961Z,47.15
2017-09-15T14:04:00.430Z,47.24
2017-09-15T14:06:02.862Z,47.27
2017-09-15T14:08:05.332Z,47.25
2017-09-15T14:10:07.793Z,47.20
2017-09-15T14:12:10.282Z,47.17
2017-09-15T14:14:12.776Z,47.19
2017-09-15T14:16:15.369Z,47.23
2017-09-15T14:18:17.840Z,47.29
2017-09-15T14:20:20.412Z,47.32
2017-09-15T14:22:22.988Z,47.35
2017-09-15T14:24:25.455Z,47.40
2017-09-15T14:26:28.064Z,47.45
2017-09-15T14:28:30.561Z,47.52
2017-09-15T14:30:33.024Z,47.54
2017-09-15T14:32:35.592Z,47.57
2017-09-15T14:34:38.148Z,47.60
2017-09-15T14:36:40.706Z,47.62
2017-09-15T14:38:43.216Z,47.64
2017-09-15T14:40:45.657Z,47.41
2017-09-15T14:42:48.095Z,47.61
2017-09-15T14:44:50.588Z,47.37
2017-09-15T14:46:53.050Z,47.58
2017-09-15T14:48:55.485Z,47.37
2017-09-15T14:50:58.028Z,47.22
2017-09-15T14:53:00.479Z,47.23
2017-09-15T14:55:02.928Z,47.26
2017-09-15T14:57:05.433Z,47.19
2017-09-15T14:59:07.993Z,47.21
2017-09-15T15:01:10.569Z,47.16
2017-09-15T15:03:13.045Z,47.86
2017-09-15T15:05:15.518Z,48.14
2017-09-15T15:07:17.976Z,47.78
2017-09-15T15:09:20.445Z,47.95
2017-09-15T15:11:22.954Z,47.91
2017-09-15T15:13:25.400Z,47.96
2017-09-15T15:15:27.890Z,47.87
2017-09-15T15:17:30.417Z,47.87
2017-09-15T15:19:32.899Z,48.07
2017-09-15T15:21:35.389Z,47.98
2017-09-15T15:23:37.936Z,48.02
2017-09-15T15:25:40.385Z,48.20
2017-09-15T15:27:42.836Z,47.94
2017-09-15T15:29:45.285Z,47.98
2017-09-15T15:31:47.824Z,48.18
2017-09-15T15:33:50.482Z,48.29
2017-09-15T15:35:52.923Z,48.26
2017-09-15T15:37:55.373Z,48.36
2017-09-15T15:39:57.940Z,48.27
2017-09-15T15:42:00.433Z,48.22
2017-09-15T15:44:03.069Z,48.47
2017-09-15T15:46:05.579Z,48.75
2017-09-15T15:48:08.043Z,48.46
2017-09-15T15:50:10.523Z,48.59
2017-09-15T15:52:14.004Z,48.78
2017-09-15T15:54:16.480Z,48.87
2017-09-15T15:56:19.003Z,48.54
2017-09-15T15:58:21.561Z,48.46
2017-09-15T16:00:24.152Z,48.71
2017-09-15T16:02:26.597Z,48.73
2017-09-15T16:04:29.196Z,48.76
2017-09-15T16:06:31.675Z,48.84
2017-09-15T16:08:34.244Z,48.86
2017-09-15T16:10:36.794Z,48.95
2017-09-15T16:12:39.226Z,48.74
2017-09-15T16:14:41.752Z,48.59
2017-09-15T16:16:44.253Z,48.70
2017-09-15T16:18:46.708Z,48.58
2017-09-15T16:20:49.181Z,48.85
2017-09-15T16:22:51.789Z,48.80
2017-09-15T16:24:54.265Z,48.61
2017-09-15T16:26:56.732Z,48.80
2017-09-15T16:28:59.303Z,48.63
2017-09-15T16:31:01.766Z,48.85
2017-09-15T16:33:04.237Z,48.76
2017-09-15T16:35:07.716Z,48.59
2017-09-15T16:37:10.221Z,48.70
2017-09-15T16:39:18.348Z,49.08
2017-09-15T16:41:26.604Z,48.59
2017-09-15T16:43:34.770Z,48.25
2017-09-15T16:45:42.792Z,47.91
2017-09-15T16:47:50.905Z,48.23
2017-09-15T16:49:52.925Z,47.90
2017-09-15T16:51:55.368Z,47.64
2017-09-15T16:53:57.863Z,47.34
2017-09-15T16:56:00.312Z,47.49
2017-09-15T16:58:02.823Z,47.77
2017-09-15T17:00:05.288Z,47.54
2017-09-15T17:02:08.551Z,47.55
2017-09-15T17:04:11.142Z,47.54
2017-09-15T17:06:13.637Z,47.49
2017-09-15T17:08:16.150Z,47.42
2017-09-15T17:10:18.590Z,47.27
2017-09-15T17:12:21.224Z,47.22
2017-09-15T17:14:23.763Z,47.23
2017-09-15T17:16:26.369Z,47.34
2017-09-15T17:18:28.921Z,47.27
2017-09-15T17:20:31.408Z,47.37
2017-09-15T17:22:33.877Z,47.36
2017-09-15T17:24:36.449Z,47.24
2017-09-15T17:26:38.896Z,47.34
2017-09-15T17:28:41.336Z,47.33
2017-09-15T17:30:43.793Z,47.32
2017-09-15T17:32:46.232Z,47.64
2017-09-15T17:34:48.782Z,47.63
2017-09-15T17:36:51.437Z,47.59
2017-09-15T17:38:53.906Z,47.53
2017-09-15T17:40:56.410Z,47.64
2017-09-15T17:42:59.124Z,47.55
2017-09-15T17:45:01.771Z,47.61
2017-09-15T17:47:04.241Z,47.72
2017-09-15T17:49:06.812Z,47.76
2017-09-15T17:51:09.340Z,47.83
2017-09-15T17:53:11.787Z,47.79
2017-09-15T17:55:14.248Z,47.64
2017-09-15T17:57:16.692Z,47.71
2017-09-15T17:59:19.265Z,47.54
2017-09-15T18:01:21.742Z,47.55
2017-09-15T18:03:24.225Z,47.48
2017-09-15T18:05:26.696Z,47.51
2017-09-15T18:07:29.437Z,47.56
2017-09-15T18:09:31.932Z,47.53
2017-09-15T18:11:34.506Z,47.61
2017-09-15T18:13:36.990Z,47.65
2017-09-15T18:15:39.445Z,47.64
2017-09-15T18:17:41.966Z,47.71
2017-09-15T18:19:44.516Z,47.71
2017-09-15T18:21:47.015Z,47.75
2017-09-15T18:23:49.758Z,47.74
2017-09-15T18:25:52.329Z,47.76
2017-09-15T18:27:54.920Z,47.75
2017-09-15T18:29:57.437Z,47.72
2017-09-15T18:32:00.015Z,47.65
2017-09-15T18:34:02.495Z,47.90
2017-09-15T18:36:04.982Z,47.77
2017-09-15T18:38:07.500Z,47.81
2017-09-15T18:40:10.056Z,47.83
2017-09-15T18:42:13.726Z,47.74
2017-09-15T18:44:16.377Z,47.67
2017-09-15T18:46:19.060Z,47.60
2017-09-15T18:48:22.945Z,47.61
2017-09-15T18:50:27.260Z,47.63
2017-09-15T18:52:29.851Z,47.75
2017-09-15T18:54:32.512Z,47.99
2017-09-15T18:56:35.390Z,47.91
2017-09-15T18:58:37.950Z,47.78
2017-09-15T19:00:40.398Z,47.86
2017-09-15T19:02:42.918Z,47.75
2017-09-15T19:04:45.481Z,47.82
2017-09-15T19:06:47.920Z,47.61
2017-09-15T19:08:50.524Z,47.49
2017-09-15T19:10:53.094Z,47.48
2017-09-15T19:12:55.665Z,47.51
2017-09-15T19:14:58.191Z,47.50
2017-09-15T19:17:00.672Z,47.58
2017-09-15T19:19:03.188Z,47.51
2017-09-15T19:21:05.730Z,47.78
2017-09-15T19:23:08.418Z,47.76
2017-09-15T19:25:10.997Z,47.59
2017-09-15T19:27:13.495Z,47.66
2017-09-15T19:29:16.005Z,47.63
2017-09-15T19:31:18.476Z,47.66
2017-09-15T19:33:20.968Z,47.93
2017-09-15T19:35:23.446Z,47.75
2017-09-15T19:37:26.023Z,47.74
2017-09-15T19:39:28.597Z,47.73
2017-09-15T19:41:31.133Z,47.78
2017-09-15T19:43:33.694Z,47.79
2017-09-15T19:45:36.340Z,47.81
2017-09-15T19:47:38.885Z,47.67
2017-09-15T19:49:41.324Z,47.73
2017-09-15T19:51:43.932Z,47.71
2017-09-15T19:53:46.500Z,48.01
2017-09-15T19:55:49.075Z,47.91
2017-09-15T19:57:51.679Z,47.90
2017-09-15T19:59:54.161Z,48.03
2017-09-15T20:01:56.690Z,48.11
2017-09-15T20:03:59.147Z,48.00
2017-09-15T20:06:01.616Z,47.96
2017-09-15T20:08:04.194Z,47.88
2017-09-15T20:10:06.765Z,47.91
2017-09-15T20:12:09.304Z,47.83
2017-09-15T20:14:11.750Z,48.30
2017-09-15T20:16:14.252Z,48.15
2017-09-15T20:18:16.864Z,48.03
2017-09-15T20:20:19.443Z,48.00
2017-09-15T20:22:22.105Z,47.89
2017-09-15T20:24:24.549Z,48.06
2017-09-15T20:26:26.989Z,48.04
2017-09-15T20:28:29.498Z,47.95
2017-09-15T20:30:31.952Z,47.87
2017-09-15T20:32:34.561Z,48.03
2017-09-15T20:34:37.236Z,48.02
2017-09-15T20:36:39.807Z,47.88
2017-09-15T20:38:42.483Z,47.81
2017-09-15T20:40:45.137Z,47.93
2017-09-15T20:42:47.601Z,47.99
2017-09-15T20:44:50.043Z,47.94
2017-09-15T20:46:52.922Z,47.93
2017-09-15T20:48:55.406Z,48.12
2017-09-15T20:50:57.854Z,48.15
2017-09-15T20:53:00.329Z,48.19
2017-09-15T20:55:02.805Z,48.04
2017-09-15T20:57:05.246Z,47.92
2017-09-15T20:59:07.776Z,48.09
2017-09-15T21:01:10.250Z,47.91
2017-09-15T21:03:12.841Z,47.93
2017-09-15T21:05:15.357Z,48.04
2017-09-15T21:07:17.829Z,47.91
2017-09-15T21:09:20.353Z,47.79
2017-09-15T21:11:22.976Z,47.86
2017-09-15T21:13:25.447Z,48.00
2017-09-15T21:15:27.897Z,48.05
2017-09-15T21:17:30.414Z,47.96
2017-09-15T21:19:33.010Z,47.98
2017-09-15T21:21:35.559Z,47.97
2017-09-15T21:23:38.160Z,48.03
2017-09-15T21:25:40.668Z,48.03
2017-09-15T21:29:50.872Z,47.91
2017-09-15T21:31:53.393Z,47.84
2017-09-15T21:33:55.933Z,47.85
2017-09-15T21:35:58.525Z,47.83
2017-09-15T21:38:01.059Z,47.72
2017-09-15T21:40:03.539Z,47.70
2017-09-15T21:42:06.076Z,47.71
2017-09-15T21:44:08.524Z,47.62
2017-09-15T21:46:10.964Z,47.69
2017-09-15T21:48:13.638Z,47.67
2017-09-15T21:50:16.091Z,47.64
2017-09-15T21:52:18.552Z,47.69
2017-09-15T21:54:21.015Z,47.71
2017-09-15T21:56:23.459Z,47.67
2017-09-15T21:58:25.988Z,47.67
2017-09-15T22:00:28.559Z,47.89
2017-09-15T22:02:31.058Z,47.90
2017-09-15T22:04:39.079Z,47.99
2017-09-15T22:06:41.648Z,47.90
2017-09-15T22:08:44.107Z,47.79
2017-09-15T22:10:46.565Z,47.83
2017-09-15T22:12:49.093Z,47.78
2017-09-15T22:14:51.533Z,47.70
2017-09-15T22:16:54.027Z,47.70
2017-09-15T22:18:56.571Z,47.79
2017-09-15T22:20:59.011Z,47.72
2017-09-15T22:23:01.572Z,47.87
2017-09-15T22:25:04.093Z,48.00
2017-09-15T22:27:06.636Z,47.93
2017-09-15T22:29:09.120Z,48.09
2017-09-15T22:31:11.656Z,48.05
2017-09-15T22:33:14.225Z,47.98
2017-09-15T22:35:17.533Z,47.87
2017-09-15T22:37:20.184Z,47.92
2017-09-15T22:39:22.671Z,47.77
2017-09-15T22:41:25.232Z,47.70
2017-09-15T22:43:27.711Z,47.93
2017-09-15T22:45:30.166Z,47.98
2017-09-15T22:47:32.668Z,47.93
2017-09-15T22:49:35.373Z,47.89
2017-09-15T22:51:37.915Z,48.03
2017-09-15T22:53:40.468Z,48.12
2017-09-15T22:55:42.971Z,48.10
2017-09-15T22:57:45.505Z,48.12
2017-09-15T22:59:48.026Z,48.07
2017-09-15T23:01:50.587Z,48.23
2017-09-15T23:03:53.021Z,48.30
2017-09-15T23:05:55.694Z,48.28
2017-09-15T23:07:58.422Z,48.21
2017-09-15T23:10:00.890Z,48.24
2017-09-15T23:12:03.512Z,48.28
2017-09-15T23:14:06.058Z,48.20
2017-09-15T23:16:09.026Z,48.29
2017-09-15T23:18:11.982Z,48.18
2017-09-15T23:20:14.520Z,48.10
2017-09-15T23:22:16.965Z,48.01
2017-09-15T23:24:19.500Z,48.02
2017-09-15T23:26:22.021Z,47.92
2017-09-15T23:28:24.467Z,47.96
2017-09-15T23:30:26.922Z,48.12
2017-09-15T23:32:29.483Z,48.22
2017-09-15T23:34:31.930Z,48.03
2017-09-15T23:36:34.373Z,47.94
2017-09-15T23:38:36.955Z,47.89
2017-09-15T23:40:39.409Z,47.83
2017-09-15T23:42:41.917Z,47.94
2017-09-15T23:44:44.675Z,48.00
2017-09-15T23:46:47.147Z,48.01
2017-09-15T23:48:49.621Z,48.01
2017-09-15T23:50:52.242Z,47.98
2017-09-15T23:52:54.702Z,48.08
2017-09-15T23:54:57.138Z,48.32
2017-09-15T23:56:59.653Z,48.04
2017-09-15T23:59:02.116Z,48.12
